Newhope, Arkansas
Current Conditions -  °F | °C
As of 10:53 AM on Friday 31 Oct 2014 (Local Time) from KMWT Reporting Station
Clear Clear  
Wind Chill: 59°   Ceiling: Unl
Heat Index: 59°   Visibility: 10mi
Dew Point: 43°   Wind: 7mph
Humidity: 55%   Direction: 350°N
Pressure: 30.23"   Gusts: NA
Location:  34.23°N, 93.88°W
Report Text: KMWT 311553Z AUTO 35006KT 10SM CLR 15/06 A3023 RMK AO2 SLP238 T01500061
Loading
Personal Weather Stations






























Interactive Weather Map
Tropical Storm Tracking
New forecast layout! Learn more

10-Day Weather Forecast

Advertisements
Track Severe Weather on mobile